sensor_id;sensor_type;location;lat;lon;timestamp;temperature;humidity
5278;DHT22;2662;51.194;6.614;2023-02-15T00:00:53;4.20;99.90
5278;DHT22;2662;51.194;6.614;2023-02-15T00:03:20;4.20;99.90
5278;DHT22;2662;51.194;6.614;2023-02-15T00:05:47;4.20;99.90
5278;DHT22;2662;51.194;6.614;2023-02-15T00:08:14;4.20;99.90
5278;DHT22;2662;51.194;6.614;2023-02-15T00:10:40;4.20;99.90
5278;DHT22;2662;51.194;6.614;2023-02-15T00:13:08;4.20;99.90
5278;DHT22;2662;51.194;6.614;2023-02-15T00:15:35;4.10;99.90
5278;DHT22;2662;51.194;6.614;2023-02-15T00:18:02;4.10;99.90
5278;DHT22;2662;51.194;6.614;2023-02-15T00:20:29;4.10;99.90
5278;DHT22;2662;51.194;6.614;2023-02-15T00:22:55;4.10;99.90
5278;DHT22;2662;51.194;6.614;2023-02-15T00:25:22;4.10;99.90
5278;DHT22;2662;51.194;6.614;2023-02-15T00:27:49;4.10;99.90
5278;DHT22;2662;51.194;6.614;2023-02-15T00:30:17;4.00;99.90
5278;DHT22;2662;51.194;6.614;2023-02-15T00:32:44;4.00;99.90
5278;DHT22;2662;51.194;6.614;2023-02-15T00:35:13;4.00;99.90
5278;DHT22;2662;51.194;6.614;2023-02-15T00:37:40;3.90;99.90
5278;DHT22;2662;51.194;6.614;2023-02-15T00:40:07;3.90;99.90
5278;DHT22;2662;51.194;6.614;2023-02-15T00:42:34;3.90;99.90
5278;DHT22;2662;51.194;6.614;2023-02-15T00:45:01;3.90;99.90
5278;DHT22;2662;51.194;6.614;2023-02-15T00:47:29;3.90;99.90
5278;DHT22;2662;51.194;6.614;2023-02-15T00:49:55;3.80;99.90
5278;DHT22;2662;51.194;6.614;2023-02-15T00:52:22;3.80;99.90
5278;DHT22;2662;51.194;6.614;2023-02-15T00:54:49;3.80;99.90
5278;DHT22;2662;51.194;6.614;2023-02-15T00:57:15;3.80;99.90
5278;DHT22;2662;51.194;6.614;2023-02-15T00:59:42;3.70;99.90
5278;DHT22;2662;51.194;6.614;2023-02-15T01:02:09;3.70;99.90
5278;DHT22;2662;51.194;6.614;2023-02-15T01:04:37;3.70;99.90
5278;DHT22;2662;51.194;6.614;2023-02-15T01:07:04;3.70;99.90
5278;DHT22;2662;51.194;6.614;2023-02-15T01:09:30;3.70;99.90
5278;DHT22;2662;51.194;6.614;2023-02-15T01:11:57;3.70;99.90
5278;DHT22;2662;51.194;6.614;2023-02-15T01:14:24;3.70;99.90
5278;DHT22;2662;51.194;6.614;2023-02-15T01:16:50;3.70;99.90
5278;DHT22;2662;51.194;6.614;2023-02-15T01:19:17;3.70;99.90
5278;DHT22;2662;51.194;6.614;2023-02-15T01:21:45;3.70;99.90
5278;DHT22;2662;51.194;6.614;2023-02-15T01:24:12;3.60;99.90
5278;DHT22;2662;51.194;6.614;2023-02-15T01:26:39;3.60;99.90
5278;DHT22;2662;51.194;6.614;2023-02-15T01:29:06;3.60;99.90
5278;DHT22;2662;51.194;6.614;2023-02-15T01:31:32;3.60;99.90
5278;DHT22;2662;51.194;6.614;2023-02-15T01:33:59;3.60;99.90
5278;DHT22;2662;51.194;6.614;2023-02-15T01:36:26;3.60;99.90
5278;DHT22;2662;51.194;6.614;2023-02-15T01:38:54;3.60;99.90
5278;DHT22;2662;51.194;6.614;2023-02-15T01:41:21;3.60;99.90
5278;DHT22;2662;51.194;6.614;2023-02-15T01:43:51;3.60;99.90
5278;DHT22;2662;51.194;6.614;2023-02-15T01:46:20;3.60;99.90
5278;DHT22;2662;51.194;6.614;2023-02-15T01:48:51;3.50;99.90
5278;DHT22;2662;51.194;6.614;2023-02-15T01:51:20;3.50;99.90
5278;DHT22;2662;51.194;6.614;2023-02-15T01:53:51;3.50;99.90
5278;DHT22;2662;51.194;6.614;2023-02-15T01:56:24;3.50;99.90
5278;DHT22;2662;51.194;6.614;2023-02-15T01:58:53;3.40;99.90
5278;DHT22;2662;51.194;6.614;2023-02-15T02:01:24;3.40;99.90
5278;DHT22;2662;51.194;6.614;2023-02-15T02:03:56;3.40;99.90
5278;DHT22;2662;51.194;6.614;2023-02-15T02:06:26;3.40;99.90
5278;DHT22;2662;51.194;6.614;2023-02-15T02:08:53;3.40;99.90
5278;DHT22;2662;51.194;6.614;2023-02-15T02:11:22;3.40;99.90
5278;DHT22;2662;51.194;6.614;2023-02-15T02:13:50;3.40;99.90
5278;DHT22;2662;51.194;6.614;2023-02-15T02:16:21;3.40;99.90
5278;DHT22;2662;51.194;6.614;2023-02-15T02:19:05;3.40;99.90
5278;DHT22;2662;51.194;6.614;2023-02-15T02:21:52;3.40;99.90
5278;DHT22;2662;51.194;6.614;2023-02-15T02:24:53;3.30;99.90
5278;DHT22;2662;51.194;6.614;2023-02-15T02:27:37;3.30;99.90
5278;DHT22;2662;51.194;6.614;2023-02-15T02:30:46;3.30;99.90
5278;DHT22;2662;51.194;6.614;2023-02-15T02:36:26;3.20;99.90
5278;DHT22;2662;51.194;6.614;2023-02-15T02:39:06;3.20;99.90
5278;DHT22;2662;51.194;6.614;2023-02-15T02:41:38;3.20;99.90
5278;DHT22;2662;51.194;6.614;2023-02-15T02:44:10;3.20;99.90
5278;DHT22;2662;51.194;6.614;2023-02-15T02:46:51;3.20;99.90
5278;DHT22;2662;51.194;6.614;2023-02-15T02:49:29;3.20;99.90
5278;DHT22;2662;51.194;6.614;2023-02-15T02:51:59;3.20;99.90
5278;DHT22;2662;51.194;6.614;2023-02-15T02:54:27;3.20;99.90
5278;DHT22;2662;51.194;6.614;2023-02-15T02:56:55;3.20;99.90
5278;DHT22;2662;51.194;6.614;2023-02-15T02:59:26;3.10;99.90
5278;DHT22;2662;51.194;6.614;2023-02-15T03:01:57;3.10;99.90
5278;DHT22;2662;51.194;6.614;2023-02-15T03:04:28;3.10;99.90
5278;DHT22;2662;51.194;6.614;2023-02-15T03:06:59;3.10;99.90
5278;DHT22;2662;51.194;6.614;2023-02-15T03:09:29;3.10;99.90
5278;DHT22;2662;51.194;6.614;2023-02-15T03:12:00;3.10;99.90
5278;DHT22;2662;51.194;6.614;2023-02-15T03:14:28;3.00;99.90
5278;DHT22;2662;51.194;6.614;2023-02-15T03:16:55;3.00;99.90
5278;DHT22;2662;51.194;6.614;2023-02-15T03:19:24;3.00;99.90
5278;DHT22;2662;51.194;6.614;2023-02-15T03:21:56;3.00;99.90
5278;DHT22;2662;51.194;6.614;2023-02-15T03:24:33;3.00;99.90
5278;DHT22;2662;51.194;6.614;2023-02-15T03:27:04;3.00;99.90
5278;DHT22;2662;51.194;6.614;2023-02-15T03:29:33;3.00;99.90
5278;DHT22;2662;51.194;6.614;2023-02-15T03:32:03;3.00;99.90
5278;DHT22;2662;51.194;6.614;2023-02-15T03:34:31;3.00;99.90
5278;DHT22;2662;51.194;6.614;2023-02-15T03:37:03;2.90;99.90
5278;DHT22;2662;51.194;6.614;2023-02-15T03:39:35;3.00;99.90
5278;DHT22;2662;51.194;6.614;2023-02-15T03:42:09;2.90;99.90
5278;DHT22;2662;51.194;6.614;2023-02-15T03:44:45;2.90;99.90
5278;DHT22;2662;51.194;6.614;2023-02-15T03:47:15;2.90;99.90
5278;DHT22;2662;51.194;6.614;2023-02-15T03:49:46;2.80;99.90
5278;DHT22;2662;51.194;6.614;2023-02-15T03:52:14;2.90;99.90
5278;DHT22;2662;51.194;6.614;2023-02-15T03:54:43;2.80;99.90
5278;DHT22;2662;51.194;6.614;2023-02-15T03:57:15;2.80;99.90
5278;DHT22;2662;51.194;6.614;2023-02-15T04:00:02;2.80;99.90
5278;DHT22;2662;51.194;6.614;2023-02-15T04:03:10;2.80;99.90
5278;DHT22;2662;51.194;6.614;2023-02-15T04:05:38;2.80;99.90
5278;DHT22;2662;51.194;6.614;2023-02-15T04:08:05;2.80;99.90
5278;DHT22;2662;51.194;6.614;2023-02-15T04:10:33;2.80;99.90
5278;DHT22;2662;51.194;6.614;2023-02-15T04:13:17;2.70;99.90
5278;DHT22;2662;51.194;6.614;2023-02-15T04:15:44;2.70;99.90
5278;DHT22;2662;51.194;6.614;2023-02-15T04:18:28;2.70;99.90
5278;DHT22;2662;51.194;6.614;2023-02-15T04:21:13;2.70;99.90
5278;DHT22;2662;51.194;6.614;2023-02-15T04:23:57;2.70;99.90
5278;DHT22;2662;51.194;6.614;2023-02-15T04:26:42;2.70;99.90
5278;DHT22;2662;51.194;6.614;2023-02-15T04:29:09;2.60;99.90
5278;DHT22;2662;51.194;6.614;2023-02-15T04:31:36;2.60;99.90
5278;DHT22;2662;51.194;6.614;2023-02-15T04:34:02;2.60;99.90
5278;DHT22;2662;51.194;6.614;2023-02-15T04:36:29;2.60;99.90
5278;DHT22;2662;51.194;6.614;2023-02-15T04:38:56;2.50;99.90
5278;DHT22;2662;51.194;6.614;2023-02-15T04:41:22;2.50;99.90
5278;DHT22;2662;51.194;6.614;2023-02-15T04:43:50;2.50;99.90
5278;DHT22;2662;51.194;6.614;2023-02-15T04:46:17;2.50;99.90
5278;DHT22;2662;51.194;6.614;2023-02-15T04:48:44;2.50;99.90
5278;DHT22;2662;51.194;6.614;2023-02-15T04:51:11;2.50;99.90
5278;DHT22;2662;51.194;6.614;2023-02-15T04:53:37;2.40;99.90
5278;DHT22;2662;51.194;6.614;2023-02-15T04:56:04;2.40;99.90
5278;DHT22;2662;51.194;6.614;2023-02-15T04:58:31;2.40;99.90
5278;DHT22;2662;51.194;6.614;2023-02-15T05:00:59;2.40;99.90
5278;DHT22;2662;51.194;6.614;2023-02-15T05:03:26;2.40;99.90
5278;DHT22;2662;51.194;6.614;2023-02-15T05:05:52;2.40;99.90
5278;DHT22;2662;51.194;6.614;2023-02-15T05:08:19;2.40;99.90
5278;DHT22;2662;51.194;6.614;2023-02-15T05:10:47;2.30;99.90
5278;DHT22;2662;51.194;6.614;2023-02-15T05:13:14;2.40;99.90
5278;DHT22;2662;51.194;6.614;2023-02-15T05:15:41;2.30;99.90
5278;DHT22;2662;51.194;6.614;2023-02-15T05:18:09;2.30;99.90
5278;DHT22;2662;51.194;6.614;2023-02-15T05:20:36;2.30;99.90
5278;DHT22;2662;51.194;6.614;2023-02-15T05:23:02;2.30;99.90
5278;DHT22;2662;51.194;6.614;2023-02-15T05:25:29;2.30;99.90
5278;DHT22;2662;51.194;6.614;2023-02-15T05:28:13;2.30;99.90
5278;DHT22;2662;51.194;6.614;2023-02-15T05:30:46;2.20;99.90
5278;DHT22;2662;51.194;6.614;2023-02-15T05:33:14;2.20;99.90
5278;DHT22;2662;51.194;6.614;2023-02-15T05:35:41;2.30;99.90
5278;DHT22;2662;51.194;6.614;2023-02-15T05:38:08;2.30;99.90
5278;DHT22;2662;51.194;6.614;2023-02-15T05:40:35;2.30;99.90
5278;DHT22;2662;51.194;6.614;2023-02-15T05:43:02;2.30;99.90
5278;DHT22;2662;51.194;6.614;2023-02-15T05:45:28;2.30;99.90
5278;DHT22;2662;51.194;6.614;2023-02-15T05:47:55;2.20;99.90
5278;DHT22;2662;51.194;6.614;2023-02-15T05:50:25;2.20;99.90
5278;DHT22;2662;51.194;6.614;2023-02-15T05:52:52;2.20;99.90
5278;DHT22;2662;51.194;6.614;2023-02-15T05:55:18;2.20;99.90
5278;DHT22;2662;51.194;6.614;2023-02-15T05:57:45;2.20;99.90
5278;DHT22;2662;51.194;6.614;2023-02-15T06:00:13;2.20;99.90
5278;DHT22;2662;51.194;6.614;2023-02-15T06:02:40;2.20;99.90
5278;DHT22;2662;51.194;6.614;2023-02-15T06:05:07;2.20;99.90
5278;DHT22;2662;51.194;6.614;2023-02-15T06:07:35;2.20;99.90
5278;DHT22;2662;51.194;6.614;2023-02-15T06:10:03;2.20;99.90
5278;DHT22;2662;51.194;6.614;2023-02-15T06:12:30;2.20;99.90
5278;DHT22;2662;51.194;6.614;2023-02-15T06:14:57;2.20;99.90
5278;DHT22;2662;51.194;6.614;2023-02-15T06:17:23;2.20;99.90
5278;DHT22;2662;51.194;6.614;2023-02-15T06:19:50;2.20;99.90
5278;DHT22;2662;51.194;6.614;2023-02-15T06:22:17;2.20;99.90
5278;DHT22;2662;51.194;6.614;2023-02-15T06:24:45;2.20;99.90
5278;DHT22;2662;51.194;6.614;2023-02-15T06:27:11;2.20;99.90
5278;DHT22;2662;51.194;6.614;2023-02-15T06:29:38;2.20;99.90
5278;DHT22;2662;51.194;6.614;2023-02-15T06:32:05;2.10;99.90
5278;DHT22;2662;51.194;6.614;2023-02-15T06:34:32;2.10;99.90
5278;DHT22;2662;51.194;6.614;2023-02-15T06:36:59;2.10;99.90
5278;DHT22;2662;51.194;6.614;2023-02-15T06:39:25;2.10;99.90
5278;DHT22;2662;51.194;6.614;2023-02-15T06:41:54;2.10;99.90
5278;DHT22;2662;51.194;6.614;2023-02-15T06:44:20;2.10;99.90
5278;DHT22;2662;51.194;6.614;2023-02-15T06:46:47;2.00;99.90
5278;DHT22;2662;51.194;6.614;2023-02-15T06:49:14;2.00;99.90
5278;DHT22;2662;51.194;6.614;2023-02-15T06:51:40;2.10;99.90
5278;DHT22;2662;51.194;6.614;2023-02-15T06:54:07;2.10;99.90
5278;DHT22;2662;51.194;6.614;2023-02-15T06:56:34;2.10;99.90
5278;DHT22;2662;51.194;6.614;2023-02-15T06:59:02;2.10;99.90
5278;DHT22;2662;51.194;6.614;2023-02-15T07:01:28;2.10;99.90
5278;DHT22;2662;51.194;6.614;2023-02-15T07:03:55;2.20;99.90
5278;DHT22;2662;51.194;6.614;2023-02-15T07:06:22;2.20;99.90
5278;DHT22;2662;51.194;6.614;2023-02-15T07:08:48;2.30;99.90
5278;DHT22;2662;51.194;6.614;2023-02-15T07:11:15;2.30;99.90
5278;DHT22;2662;51.194;6.614;2023-02-15T07:13:59;2.30;99.90
5278;DHT22;2662;51.194;6.614;2023-02-15T07:16:28;2.40;99.90
5278;DHT22;2662;51.194;6.614;2023-02-15T07:18:54;2.40;99.90
5278;DHT22;2662;51.194;6.614;2023-02-15T07:21:21;2.50;99.90
5278;DHT22;2662;51.194;6.614;2023-02-15T07:23:48;2.50;99.90
5278;DHT22;2662;51.194;6.614;2023-02-15T07:26:14;2.60;99.90
5278;DHT22;2662;51.194;6.614;2023-02-15T07:28:41;2.60;99.90
5278;DHT22;2662;51.194;6.614;2023-02-15T07:31:08;2.70;99.90
5278;DHT22;2662;51.194;6.614;2023-02-15T07:33:36;2.70;99.90
5278;DHT22;2662;51.194;6.614;2023-02-15T07:36:04;2.80;99.90
5278;DHT22;2662;51.194;6.614;2023-02-15T07:38:33;3.00;99.90
5278;DHT22;2662;51.194;6.614;2023-02-15T07:41:00;3.80;99.90
5278;DHT22;2662;51.194;6.614;2023-02-15T07:43:27;4.70;99.90
5278;DHT22;2662;51.194;6.614;2023-02-15T07:45:54;5.40;99.90
5278;DHT22;2662;51.194;6.614;2023-02-15T07:48:24;6.30;99.90
5278;DHT22;2662;51.194;6.614;2023-02-15T07:50:53;7.10;99.90
5278;DHT22;2662;51.194;6.614;2023-02-15T07:53:19;7.80;99.90
5278;DHT22;2662;51.194;6.614;2023-02-15T07:55:46;8.10;99.90
5278;DHT22;2662;51.194;6.614;2023-02-15T07:58:13;8.50;99.90
5278;DHT22;2662;51.194;6.614;2023-02-15T08:00:39;9.00;99.90
5278;DHT22;2662;51.194;6.614;2023-02-15T08:03:22;8.70;99.90
5278;DHT22;2662;51.194;6.614;2023-02-15T08:05:56;8.30;99.90
5278;DHT22;2662;51.194;6.614;2023-02-15T08:08:22;8.10;99.90
5278;DHT22;2662;51.194;6.614;2023-02-15T08:11:00;8.30;99.90
5278;DHT22;2662;51.194;6.614;2023-02-15T08:13:44;8.70;99.90
5278;DHT22;2662;51.194;6.614;2023-02-15T08:16:21;9.40;99.90
5278;DHT22;2662;51.194;6.614;2023-02-15T08:18:48;10.20;99.90
5278;DHT22;2662;51.194;6.614;2023-02-15T08:21:17;10.70;99.90
5278;DHT22;2662;51.194;6.614;2023-02-15T08:23:43;11.30;99.90
5278;DHT22;2662;51.194;6.614;2023-02-15T08:26:10;11.70;99.90
5278;DHT22;2662;51.194;6.614;2023-02-15T08:28:37;12.10;99.90
5278;DHT22;2662;51.194;6.614;2023-02-15T08:31:05;12.10;99.90
5278;DHT22;2662;51.194;6.614;2023-02-15T08:33:31;12.20;99.90
5278;DHT22;2662;51.194;6.614;2023-02-15T08:36:02;11.70;99.90
5278;DHT22;2662;51.194;6.614;2023-02-15T08:38:31;11.60;99.90
5278;DHT22;2662;51.194;6.614;2023-02-15T08:40:57;12.40;99.90
5278;DHT22;2662;51.194;6.614;2023-02-15T08:43:24;12.40;99.90
5278;DHT22;2662;51.194;6.614;2023-02-15T08:45:51;12.70;99.90
5278;DHT22;2662;51.194;6.614;2023-02-15T08:48:17;11.90;99.90
5278;DHT22;2662;51.194;6.614;2023-02-15T08:50:44;12.20;99.90
5278;DHT22;2662;51.194;6.614;2023-02-15T08:53:11;12.20;99.90
5278;DHT22;2662;51.194;6.614;2023-02-15T08:55:39;12.20;99.90
5278;DHT22;2662;51.194;6.614;2023-02-15T08:58:06;11.90;99.90
5278;DHT22;2662;51.194;6.614;2023-02-15T09:00:33;11.80;99.90
5278;DHT22;2662;51.194;6.614;2023-02-15T09:02:59;12.40;99.90
5278;DHT22;2662;51.194;6.614;2023-02-15T09:05:26;12.50;99.90
5278;DHT22;2662;51.194;6.614;2023-02-15T09:07:53;12.70;99.90
5278;DHT22;2662;51.194;6.614;2023-02-15T09:10:19;13.00;99.90
5278;DHT22;2662;51.194;6.614;2023-02-15T09:12:47;12.80;99.90
5278;DHT22;2662;51.194;6.614;2023-02-15T09:15:15;12.90;99.90
5278;DHT22;2662;51.194;6.614;2023-02-15T09:17:42;12.70;99.90
5278;DHT22;2662;51.194;6.614;2023-02-15T09:20:09;12.50;99.90
5278;DHT22;2662;51.194;6.614;2023-02-15T09:22:36;11.90;99.90
5278;DHT22;2662;51.194;6.614;2023-02-15T09:25:03;11.60;99.90
5278;DHT22;2662;51.194;6.614;2023-02-15T09:27:29;11.60;99.90
5278;DHT22;2662;51.194;6.614;2023-02-15T09:29:57;11.90;99.90
5278;DHT22;2662;51.194;6.614;2023-02-15T09:32:24;12.20;99.90
5278;DHT22;2662;51.194;6.614;2023-02-15T09:34:51;12.30;99.90
5278;DHT22;2662;51.194;6.614;2023-02-15T09:37:18;12.00;99.90
5278;DHT22;2662;51.194;6.614;2023-02-15T09:39:44;12.00;99.90
5278;DHT22;2662;51.194;6.614;2023-02-15T09:42:27;12.00;99.90
5278;DHT22;2662;51.194;6.614;2023-02-15T09:45:16;12.10;99.90
5278;DHT22;2662;51.194;6.614;2023-02-15T09:50:59;11.80;99.90
5278;DHT22;2662;51.194;6.614;2023-02-15T09:53:35;11.70;99.90
5278;DHT22;2662;51.194;6.614;2023-02-15T09:56:10;11.70;99.90
5278;DHT22;2662;51.194;6.614;2023-02-15T09:58:46;12.00;99.90
5278;DHT22;2662;51.194;6.614;2023-02-15T10:01:25;11.70;99.90
5278;DHT22;2662;51.194;6.614;2023-02-15T10:04:12;12.00;99.90
5278;DHT22;2662;51.194;6.614;2023-02-15T10:06:46;11.70;99.90
5278;DHT22;2662;51.194;6.614;2023-02-15T10:09:24;11.40;99.90
5278;DHT22;2662;51.194;6.614;2023-02-15T10:12:08;11.40;99.90
5278;DHT22;2662;51.194;6.614;2023-02-15T10:15:02;11.30;99.90
5278;DHT22;2662;51.194;6.614;2023-02-15T10:17:47;11.30;99.90
5278;DHT22;2662;51.194;6.614;2023-02-15T10:20:23;11.50;99.90
5278;DHT22;2662;51.194;6.614;2023-02-15T10:23:07;11.40;99.90
5278;DHT22;2662;51.194;6.614;2023-02-15T10:25:41;11.30;99.90
5278;DHT22;2662;51.194;6.614;2023-02-15T10:28:16;11.30;99.90
5278;DHT22;2662;51.194;6.614;2023-02-15T10:30:46;11.40;99.90
5278;DHT22;2662;51.194;6.614;2023-02-15T10:33:23;11.80;99.90
5278;DHT22;2662;51.194;6.614;2023-02-15T10:36:03;11.60;99.90
5278;DHT22;2662;51.194;6.614;2023-02-15T10:38:36;12.00;99.90
5278;DHT22;2662;51.194;6.614;2023-02-15T10:41:14;12.30;99.90
5278;DHT22;2662;51.194;6.614;2023-02-15T10:43:59;12.30;99.90
5278;DHT22;2662;51.194;6.614;2023-02-15T10:46:47;11.80;99.90
5278;DHT22;2662;51.194;6.614;2023-02-15T10:49:26;11.50;99.90
5278;DHT22;2662;51.194;6.614;2023-02-15T10:52:09;11.40;99.90
5278;DHT22;2662;51.194;6.614;2023-02-15T10:54:45;11.20;99.90
5278;DHT22;2662;51.194;6.614;2023-02-15T10:57:18;10.80;99.90
5278;DHT22;2662;51.194;6.614;2023-02-15T10:59:57;10.50;99.90
5278;DHT22;2662;51.194;6.614;2023-02-15T11:02:36;10.20;99.90
5278;DHT22;2662;51.194;6.614;2023-02-15T11:05:19;10.10;99.90
5278;DHT22;2662;51.194;6.614;2023-02-15T11:07:49;10.00;99.90
5278;DHT22;2662;51.194;6.614;2023-02-15T11:10:26;9.80;99.90
5278;DHT22;2662;51.194;6.614;2023-02-15T11:12:55;9.80;99.90
5278;DHT22;2662;51.194;6.614;2023-02-15T11:15:28;9.90;99.90
5278;DHT22;2662;51.194;6.614;2023-02-15T11:17:58;10.00;99.90
5278;DHT22;2662;51.194;6.614;2023-02-15T11:20:31;10.00;99.90
5278;DHT22;2662;51.194;6.614;2023-02-15T11:22:59;10.10;99.90
5278;DHT22;2662;51.194;6.614;2023-02-15T11:25:30;10.20;99.90
5278;DHT22;2662;51.194;6.614;2023-02-15T11:27:58;10.40;99.90
5278;DHT22;2662;51.194;6.614;2023-02-15T11:30:28;10.60;99.90
5278;DHT22;2662;51.194;6.614;2023-02-15T11:33:01;10.70;99.90
5278;DHT22;2662;51.194;6.614;2023-02-15T11:35:34;10.90;99.90
5278;DHT22;2662;51.194;6.614;2023-02-15T11:38:07;11.00;99.90
5278;DHT22;2662;51.194;6.614;2023-02-15T11:40:45;11.00;99.90
5278;DHT22;2662;51.194;6.614;2023-02-15T11:43:16;11.10;99.90
5278;DHT22;2662;51.194;6.614;2023-02-15T11:45:45;11.20;99.90
5278;DHT22;2662;51.194;6.614;2023-02-15T11:48:14;11.30;99.90
5278;DHT22;2662;51.194;6.614;2023-02-15T11:50:43;11.30;99.90
5278;DHT22;2662;51.194;6.614;2023-02-15T11:53:12;11.40;99.90
5278;DHT22;2662;51.194;6.614;2023-02-15T11:55:42;11.50;99.90
5278;DHT22;2662;51.194;6.614;2023-02-15T11:58:16;11.50;99.90
5278;DHT22;2662;51.194;6.614;2023-02-15T12:00:50;11.60;99.90
5278;DHT22;2662;51.194;6.614;2023-02-15T12:03:22;11.80;99.90
5278;DHT22;2662;51.194;6.614;2023-02-15T12:06:00;11.80;99.90
5278;DHT22;2662;51.194;6.614;2023-02-15T12:08:34;11.80;99.90
5278;DHT22;2662;51.194;6.614;2023-02-15T12:11:07;12.00;99.90
5278;DHT22;2662;51.194;6.614;2023-02-15T12:13:54;12.00;99.90
5278;DHT22;2662;51.194;6.614;2023-02-15T12:16:21;12.30;99.90
5278;DHT22;2662;51.194;6.614;2023-02-15T12:18:48;12.40;99.90
5278;DHT22;2662;51.194;6.614;2023-02-15T12:21:25;12.50;99.90
5278;DHT22;2662;51.194;6.614;2023-02-15T12:23:54;12.60;99.90
5278;DHT22;2662;51.194;6.614;2023-02-15T12:26:27;12.60;99.90
5278;DHT22;2662;51.194;6.614;2023-02-15T12:28:57;12.60;99.90
5278;DHT22;2662;51.194;6.614;2023-02-15T12:31:30;12.60;99.90
5278;DHT22;2662;51.194;6.614;2023-02-15T12:34:00;12.60;99.90
5278;DHT22;2662;51.194;6.614;2023-02-15T12:36:31;12.70;99.90
5278;DHT22;2662;51.194;6.614;2023-02-15T12:39:17;12.70;99.90
5278;DHT22;2662;51.194;6.614;2023-02-15T12:41:46;12.70;99.90
5278;DHT22;2662;51.194;6.614;2023-02-15T12:44:24;12.80;99.90
5278;DHT22;2662;51.194;6.614;2023-02-15T12:47:00;12.80;99.90
5278;DHT22;2662;51.194;6.614;2023-02-15T12:49:28;12.80;99.90
5278;DHT22;2662;51.194;6.614;2023-02-15T12:51:58;12.90;99.90
5278;DHT22;2662;51.194;6.614;2023-02-15T12:54:34;12.90;99.90
5278;DHT22;2662;51.194;6.614;2023-02-15T12:57:14;13.00;99.90
5278;DHT22;2662;51.194;6.614;2023-02-15T12:59:48;13.10;99.90
5278;DHT22;2662;51.194;6.614;2023-02-15T13:02:21;13.10;99.90
5278;DHT22;2662;51.194;6.614;2023-02-15T13:04:49;13.20;99.90
5278;DHT22;2662;51.194;6.614;2023-02-15T13:07:17;13.30;99.90
5278;DHT22;2662;51.194;6.614;2023-02-15T13:09:44;13.40;99.90
5278;DHT22;2662;51.194;6.614;2023-02-15T13:12:17;13.50;99.90
5278;DHT22;2662;51.194;6.614;2023-02-15T13:14:46;13.50;99.90
5278;DHT22;2662;51.194;6.614;2023-02-15T13:17:16;13.50;99.90
5278;DHT22;2662;51.194;6.614;2023-02-15T13:19:46;13.60;99.90
5278;DHT22;2662;51.194;6.614;2023-02-15T13:22:17;13.60;99.90
5278;DHT22;2662;51.194;6.614;2023-02-15T13:24:47;13.60;99.90
5278;DHT22;2662;51.194;6.614;2023-02-15T13:27:16;13.70;99.90
5278;DHT22;2662;51.194;6.614;2023-02-15T13:29:46;13.70;99.90
5278;DHT22;2662;51.194;6.614;2023-02-15T13:32:22;13.80;99.90
5278;DHT22;2662;51.194;6.614;2023-02-15T13:34:53;13.90;99.90
5278;DHT22;2662;51.194;6.614;2023-02-15T13:37:33;14.10;99.90
5278;DHT22;2662;51.194;6.614;2023-02-15T13:40:08;14.10;99.90
5278;DHT22;2662;51.194;6.614;2023-02-15T13:42:41;14.00;99.90
5278;DHT22;2662;51.194;6.614;2023-02-15T13:45:21;14.00;99.90
5278;DHT22;2662;51.194;6.614;2023-02-15T13:47:57;14.10;99.90
5278;DHT22;2662;51.194;6.614;2023-02-15T13:50:38;14.10;99.90
5278;DHT22;2662;51.194;6.614;2023-02-15T13:56:12;14.20;99.90
5278;DHT22;2662;51.194;6.614;2023-02-15T13:59:12;14.30;99.90
5278;DHT22;2662;51.194;6.614;2023-02-15T14:01:45;14.30;99.90
5278;DHT22;2662;51.194;6.614;2023-02-15T14:04:29;14.30;99.90
5278;DHT22;2662;51.194;6.614;2023-02-15T14:07:14;14.30;99.90
5278;DHT22;2662;51.194;6.614;2023-02-15T14:09:52;14.40;99.90
5278;DHT22;2662;51.194;6.614;2023-02-15T14:12:31;14.40;99.90
5278;DHT22;2662;51.194;6.614;2023-02-15T14:15:08;14.40;99.90
5278;DHT22;2662;51.194;6.614;2023-02-15T14:17:46;14.40;99.90
5278;DHT22;2662;51.194;6.614;2023-02-15T14:20:19;14.30;99.90
5278;DHT22;2662;51.194;6.614;2023-02-15T14:22:52;14.30;99.90
5278;DHT22;2662;51.194;6.614;2023-02-15T14:25:27;14.20;99.90
5278;DHT22;2662;51.194;6.614;2023-02-15T14:28:03;14.20;99.90
5278;DHT22;2662;51.194;6.614;2023-02-15T14:30:33;14.20;99.90
5278;DHT22;2662;51.194;6.614;2023-02-15T14:33:04;14.10;99.90
5278;DHT22;2662;51.194;6.614;2023-02-15T14:35:32;14.10;99.90
5278;DHT22;2662;51.194;6.614;2023-02-15T14:38:04;14.00;99.90
5278;DHT22;2662;51.194;6.614;2023-02-15T14:40:40;14.00;99.90
5278;DHT22;2662;51.194;6.614;2023-02-15T14:43:32;14.10;99.90
5278;DHT22;2662;51.194;6.614;2023-02-15T14:46:09;14.10;99.90
5278;DHT22;2662;51.194;6.614;2023-02-15T14:48:40;14.10;99.90
5278;DHT22;2662;51.194;6.614;2023-02-15T14:51:09;14.20;99.90
5278;DHT22;2662;51.194;6.614;2023-02-15T14:53:37;14.30;99.90
5278;DHT22;2662;51.194;6.614;2023-02-15T14:56:19;14.30;99.90
5278;DHT22;2662;51.194;6.614;2023-02-15T14:59:17;14.30;99.90
5278;DHT22;2662;51.194;6.614;2023-02-15T15:01:54;14.20;99.90
5278;DHT22;2662;51.194;6.614;2023-02-15T15:04:26;14.10;99.90
5278;DHT22;2662;51.194;6.614;2023-02-15T15:07:00;14.00;99.90
5278;DHT22;2662;51.194;6.614;2023-02-15T15:09:29;14.00;99.90
5278;DHT22;2662;51.194;6.614;2023-02-15T15:12:13;13.90;99.90
5278;DHT22;2662;51.194;6.614;2023-02-15T15:14:41;13.90;99.90
5278;DHT22;2662;51.194;6.614;2023-02-15T15:17:11;13.90;99.90
5278;DHT22;2662;51.194;6.614;2023-02-15T15:19:57;13.90;99.90
5278;DHT22;2662;51.194;6.614;2023-02-15T15:22:25;13.80;99.90
5278;DHT22;2662;51.194;6.614;2023-02-15T15:24:53;13.80;99.90
5278;DHT22;2662;51.194;6.614;2023-02-15T15:27:41;13.80;99.90
5278;DHT22;2662;51.194;6.614;2023-02-15T15:36:57;13.60;99.90
5278;DHT22;2662;51.194;6.614;2023-02-15T15:39:50;13.60;99.90
5278;DHT22;2662;51.194;6.614;2023-02-15T15:42:31;13.50;99.90
5278;DHT22;2662;51.194;6.614;2023-02-15T15:45:29;13.50;99.90
5278;DHT22;2662;51.194;6.614;2023-02-15T15:48:14;13.40;99.90
5278;DHT22;2662;51.194;6.614;2023-02-15T15:50:44;13.30;99.90
5278;DHT22;2662;51.194;6.614;2023-02-15T15:53:20;13.30;99.90
5278;DHT22;2662;51.194;6.614;2023-02-15T15:55:49;13.10;99.90
5278;DHT22;2662;51.194;6.614;2023-02-15T15:58:18;13.00;99.90
5278;DHT22;2662;51.194;6.614;2023-02-15T16:00:49;12.90;99.90
5278;DHT22;2662;51.194;6.614;2023-02-15T16:03:21;12.90;99.90
5278;DHT22;2662;51.194;6.614;2023-02-15T16:05:48;12.80;99.90
5278;DHT22;2662;51.194;6.614;2023-02-15T16:08:26;12.80;99.90
5278;DHT22;2662;51.194;6.614;2023-02-15T16:10:53;12.70;99.90
5278;DHT22;2662;51.194;6.614;2023-02-15T16:13:20;12.60;99.90
5278;DHT22;2662;51.194;6.614;2023-02-15T16:15:50;12.50;99.90
5278;DHT22;2662;51.194;6.614;2023-02-15T16:18:21;12.40;99.90
5278;DHT22;2662;51.194;6.614;2023-02-15T16:20:51;12.30;99.90
5278;DHT22;2662;51.194;6.614;2023-02-15T16:23:31;12.20;99.90
5278;DHT22;2662;51.194;6.614;2023-02-15T16:26:06;12.10;99.90
5278;DHT22;2662;51.194;6.614;2023-02-15T16:28:35;12.00;99.90
5278;DHT22;2662;51.194;6.614;2023-02-15T16:31:12;11.90;99.90
5278;DHT22;2662;51.194;6.614;2023-02-15T16:33:40;11.80;99.90
5278;DHT22;2662;51.194;6.614;2023-02-15T16:36:10;11.70;99.90
5278;DHT22;2662;51.194;6.614;2023-02-15T16:39:07;11.60;99.90
5278;DHT22;2662;51.194;6.614;2023-02-15T16:41:34;11.50;99.90
5278;DHT22;2662;51.194;6.614;2023-02-15T16:44:05;11.50;99.90
5278;DHT22;2662;51.194;6.614;2023-02-15T16:46:38;11.40;99.90
5278;DHT22;2662;51.194;6.614;2023-02-15T16:49:13;11.20;99.90
5278;DHT22;2662;51.194;6.614;2023-02-15T16:51:42;11.10;99.90
5278;DHT22;2662;51.194;6.614;2023-02-15T16:54:16;11.10;99.90